createdAt,value
2018-12-07T00:02:06.425Z,4.60
2018-12-07T00:04:37.529Z,4.70
2018-12-07T00:07:08.618Z,4.60
2018-12-07T00:09:39.797Z,4.60
2018-12-07T00:12:10.953Z,4.60
2018-12-07T00:14:42.086Z,4.60
2018-12-07T00:17:13.167Z,4.60
2018-12-07T00:19:47.887Z,4.60
2018-12-07T00:22:17.167Z,4.60
2018-12-07T00:24:48.109Z,4.60
2018-12-07T00:27:19.147Z,4.70
2018-12-07T00:29:50.081Z,4.70
2018-12-07T00:32:20.998Z,4.70
2018-12-07T00:34:51.871Z,4.70
2018-12-07T00:37:22.777Z,4.70
2018-12-07T00:39:53.708Z,4.70
2018-12-07T00:42:24.604Z,4.70
2018-12-07T00:44:55.530Z,4.70
2018-12-07T00:47:26.524Z,4.70
2018-12-07T00:49:57.433Z,4.70
2018-12-07T00:52:28.365Z,4.70
2018-12-07T00:54:59.204Z,4.70
2018-12-07T00:57:30.125Z,4.70
2018-12-07T01:00:00.977Z,4.70
2018-12-07T01:02:31.907Z,4.70
2018-12-07T01:05:02.836Z,4.70
2018-12-07T01:07:34.105Z,4.60
2018-12-07T01:10:06.005Z,4.60
2018-12-07T01:12:36.885Z,4.60
2018-12-07T01:15:08.265Z,4.70
2018-12-07T01:17:39.684Z,4.60
2018-12-07T01:20:10.989Z,4.60
2018-12-07T01:22:42.144Z,4.60
2018-12-07T01:25:13.404Z,4.70
2018-12-07T01:27:44.653Z,4.60
2018-12-07T01:30:15.805Z,4.60
2018-12-07T01:32:47.007Z,4.60
2018-12-07T01:35:18.444Z,4.50
2018-12-07T01:37:49.690Z,4.50
2018-12-07T01:40:20.777Z,4.50
2018-12-07T01:42:51.925Z,4.60
2018-12-07T01:45:23.092Z,4.60
2018-12-07T01:47:54.236Z,4.70
2018-12-07T01:50:25.406Z,4.70
2018-12-07T01:52:56.493Z,4.60
2018-12-07T01:55:27.912Z,4.60
2018-12-07T01:57:59.377Z,4.60
2018-12-07T02:00:30.784Z,4.70
2018-12-07T02:03:01.970Z,4.70
2018-12-07T02:05:33.109Z,4.70
2018-12-07T02:08:04.227Z,4.70
2018-12-07T02:10:35.365Z,4.80
2018-12-07T02:13:06.625Z,4.70
2018-12-07T02:15:37.799Z,4.70
2018-12-07T02:18:08.952Z,4.70
2018-12-07T02:20:40.469Z,4.70
2018-12-07T02:23:11.629Z,4.70
2018-12-07T02:25:42.687Z,4.70
2018-12-07T02:28:13.811Z,4.70
2018-12-07T02:30:45.052Z,4.60
2018-12-07T02:33:16.565Z,4.70
2018-12-07T02:35:47.686Z,4.60
2018-12-07T02:38:18.807Z,4.70
2018-12-07T02:40:49.910Z,4.60
2018-12-07T02:43:21.045Z,4.60
2018-12-07T02:45:52.183Z,4.70
2018-12-07T02:48:23.318Z,4.60
2018-12-07T02:50:54.453Z,4.60
2018-12-07T02:53:25.960Z,4.60
2018-12-07T02:55:57.047Z,4.50
2018-12-07T02:58:28.245Z,4.50
2018-12-07T03:00:59.287Z,4.50
2018-12-07T03:03:30.445Z,4.50
2018-12-07T03:06:01.577Z,4.40
2018-12-07T03:08:32.621Z,4.40
2018-12-07T03:11:03.633Z,4.40
2018-12-07T03:13:34.702Z,4.40
2018-12-07T03:16:05.679Z,4.50
2018-12-07T03:18:36.747Z,4.40
2018-12-07T03:21:07.784Z,4.40
2018-12-07T03:23:38.852Z,4.50
2018-12-07T03:26:10.776Z,4.40
2018-12-07T03:28:42.007Z,4.50
2018-12-07T03:31:12.947Z,4.40
2018-12-07T03:33:44.110Z,4.40
2018-12-07T03:36:15.105Z,4.40
2018-12-07T03:38:46.104Z,4.40
2018-12-07T03:41:17.121Z,4.30
2018-12-07T03:43:48.219Z,4.40
2018-12-07T03:46:19.158Z,4.40
2018-12-07T03:48:50.197Z,4.40
2018-12-07T03:51:21.186Z,4.30
2018-12-07T03:53:52.338Z,4.40
2018-12-07T03:56:23.324Z,4.40
2018-12-07T03:58:54.386Z,4.50
2018-12-07T04:01:25.307Z,4.40
2018-12-07T04:03:56.591Z,4.40
2018-12-07T04:06:27.487Z,4.40
2018-12-07T04:08:58.594Z,4.40
2018-12-07T04:11:29.872Z,4.40
2018-12-07T04:14:00.823Z,4.50
2018-12-07T04:16:31.737Z,4.50
2018-12-07T04:19:02.689Z,4.50
2018-12-07T04:21:33.558Z,4.50
2018-12-07T04:24:04.492Z,4.50
2018-12-07T04:26:35.399Z,4.50
2018-12-07T04:29:08.949Z,4.50
2018-12-07T04:31:39.890Z,4.50
2018-12-07T04:34:10.871Z,4.50
2018-12-07T04:36:41.825Z,4.50
2018-12-07T04:39:12.862Z,4.50
2018-12-07T04:41:43.838Z,4.60
2018-12-07T04:44:14.872Z,4.50
2018-12-07T04:46:45.771Z,4.50
2018-12-07T04:49:16.696Z,4.50
2018-12-07T04:51:47.590Z,4.50
2018-12-07T04:54:18.551Z,4.50
2018-12-07T04:56:49.537Z,4.50
2018-12-07T04:59:20.570Z,4.60
2018-12-07T05:01:51.511Z,4.50
2018-12-07T05:04:22.475Z,4.60
2018-12-07T05:06:53.419Z,4.70
2018-12-07T05:09:24.363Z,4.60
2018-12-07T05:11:55.890Z,4.70
2018-12-07T05:14:27.571Z,4.60
2018-12-07T05:16:58.503Z,4.70
2018-12-07T05:19:29.638Z,4.60
2018-12-07T05:22:00.589Z,4.60
2018-12-07T05:24:31.559Z,4.60
2018-12-07T05:27:02.494Z,4.60
2018-12-07T05:29:34.551Z,4.60
2018-12-07T05:32:05.933Z,4.50
2018-12-07T05:34:37.251Z,4.60
2018-12-07T05:37:08.385Z,4.60
2018-12-07T05:39:39.518Z,4.50
2018-12-07T05:42:10.463Z,4.50
2018-12-07T05:44:41.569Z,4.50
2018-12-07T05:47:12.525Z,4.60
2018-12-07T05:49:43.526Z,4.60
2018-12-07T05:52:14.466Z,4.50
2018-12-07T05:54:45.453Z,4.50
2018-12-07T05:57:16.403Z,4.40
2018-12-07T05:59:47.493Z,4.50
2018-12-07T06:02:18.422Z,4.50
2018-12-07T06:04:49.385Z,4.50
2018-12-07T06:07:20.283Z,4.50
2018-12-07T06:09:51.245Z,4.40
2018-12-07T06:12:23.008Z,4.40
2018-12-07T06:14:53.949Z,4.30
2018-12-07T06:17:24.834Z,4.50
2018-12-07T06:19:55.800Z,4.50
2018-12-07T06:22:26.694Z,4.50
2018-12-07T06:24:57.622Z,4.50
2018-12-07T06:27:28.685Z,4.60
2018-12-07T06:29:59.654Z,4.60
2018-12-07T06:32:36.170Z,4.60
2018-12-07T06:35:03.547Z,4.60
2018-12-07T06:37:34.968Z,4.60
2018-12-07T06:40:06.421Z,4.60
2018-12-07T06:42:37.323Z,4.60
2018-12-07T06:45:08.544Z,4.70
2018-12-07T06:47:39.520Z,4.70
2018-12-07T06:50:11.813Z,4.70
2018-12-07T06:52:44.597Z,4.60
2018-12-07T06:55:15.853Z,4.70
2018-12-07T06:57:48.226Z,4.70
2018-12-07T07:00:19.626Z,4.70
2018-12-07T07:02:50.583Z,4.70
2018-12-07T07:05:21.525Z,4.60
2018-12-07T07:07:52.446Z,4.60
2018-12-07T07:10:23.586Z,4.70
2018-12-07T07:12:54.624Z,4.70
2018-12-07T07:15:25.759Z,4.70
2018-12-07T07:17:56.796Z,4.70
2018-12-07T07:20:28.175Z,4.60
2018-12-07T07:22:59.251Z,4.60
2018-12-07T07:25:30.353Z,4.60
2018-12-07T07:28:01.416Z,4.70
2018-12-07T07:30:32.519Z,4.70
2018-12-07T07:33:03.591Z,4.70
2018-12-07T07:35:34.684Z,4.60
2018-12-07T07:38:05.763Z,4.70
2018-12-07T07:40:36.897Z,4.70
2018-12-07T07:43:07.783Z,4.80
2018-12-07T07:45:38.787Z,4.90
2018-12-07T07:48:09.647Z,4.90
2018-12-07T07:50:40.582Z,4.90
2018-12-07T07:53:11.514Z,4.90
2018-12-07T07:55:42.433Z,4.90
2018-12-07T07:58:13.319Z,5.00
2018-12-07T08:00:44.287Z,5.00
2018-12-07T08:03:15.391Z,5.00
2018-12-07T08:05:46.288Z,5.10
2018-12-07T08:08:17.231Z,5.10
2018-12-07T08:10:48.473Z,5.10
2018-12-07T08:13:19.416Z,5.20
2018-12-07T08:15:50.549Z,5.20
2018-12-07T08:18:21.423Z,5.10
2018-12-07T08:20:52.311Z,5.20
2018-12-07T08:23:23.144Z,5.20
2018-12-07T08:25:55.023Z,5.20
2018-12-07T08:28:25.920Z,5.30
2018-12-07T08:30:57.017Z,5.20
2018-12-07T08:33:27.867Z,5.20
2018-12-07T08:35:58.951Z,5.20
2018-12-07T08:38:29.964Z,5.20
2018-12-07T08:41:01.063Z,5.40
2018-12-07T08:43:32.007Z,5.40
2018-12-07T08:46:02.919Z,5.30
2018-12-07T08:48:33.815Z,5.40
2018-12-07T08:51:04.822Z,5.50
2018-12-07T08:53:35.666Z,5.40
2018-12-07T08:56:06.639Z,5.50
2018-12-07T08:58:37.571Z,5.60
2018-12-07T09:01:08.607Z,5.70
2018-12-07T09:03:39.690Z,5.70
2018-12-07T09:06:10.575Z,5.80
2018-12-07T09:08:41.431Z,5.80
2018-12-07T09:11:12.471Z,5.80
2018-12-07T09:13:43.458Z,5.80
2018-12-07T09:16:14.371Z,5.80
2018-12-07T09:18:45.250Z,5.80
2018-12-07T09:21:16.143Z,5.90
2018-12-07T09:23:49.648Z,5.90
2018-12-07T09:26:20.002Z,5.90
2018-12-07T09:28:50.876Z,6.00
2018-12-07T09:31:21.836Z,6.10
2018-12-07T09:33:52.732Z,6.10
2018-12-07T09:36:23.728Z,6.20
2018-12-07T09:38:54.703Z,6.20
2018-12-07T09:41:25.627Z,6.20
2018-12-07T09:43:56.563Z,6.30
2018-12-07T09:46:27.503Z,6.40
2018-12-07T09:48:58.757Z,6.40
2018-12-07T09:51:29.669Z,6.30
2018-12-07T09:54:00.545Z,6.40
2018-12-07T09:56:31.498Z,6.40
2018-12-07T09:59:02.411Z,6.40
2018-12-07T10:01:33.389Z,6.40
2018-12-07T10:04:04.232Z,6.40
2018-12-07T10:06:35.249Z,6.50
2018-12-07T10:09:09.320Z,6.60
2018-12-07T10:11:40.574Z,6.70
2018-12-07T10:14:11.999Z,6.80
2018-12-07T10:16:44.331Z,6.80
2018-12-07T10:19:15.443Z,6.90
2018-12-07T10:21:46.454Z,6.90
2018-12-07T10:24:20.435Z,6.90
2018-12-07T10:26:51.463Z,6.90
2018-12-07T10:29:22.434Z,6.90
2018-12-07T10:31:53.464Z,7.00
2018-12-07T10:34:24.870Z,7.10
2018-12-07T10:36:55.802Z,7.20
2018-12-07T10:39:26.625Z,7.10
2018-12-07T10:41:57.714Z,7.20
2018-12-07T10:44:28.627Z,7.20
2018-12-07T10:46:59.640Z,7.30
2018-12-07T10:49:30.630Z,7.30
2018-12-07T10:52:01.682Z,7.30
2018-12-07T10:54:32.893Z,7.40
2018-12-07T10:57:04.006Z,7.40
2018-12-07T10:59:34.804Z,7.50
2018-12-07T11:02:10.655Z,7.60
2018-12-07T11:04:46.654Z,7.50
2018-12-07T11:07:22.555Z,7.60
2018-12-07T11:10:57.846Z,7.70
2018-12-07T11:13:36.121Z,7.60
2018-12-07T11:16:12.023Z,7.60
2018-12-07T11:18:48.034Z,7.70
2018-12-07T11:21:24.116Z,7.80
2018-12-07T11:24:00.465Z,8.00
2018-12-07T11:26:36.692Z,8.10
2018-12-07T11:30:11.221Z,8.10
2018-12-07T11:32:47.423Z,8.20
2018-12-07T11:35:22.489Z,8.20
2018-12-07T11:37:53.462Z,8.10
2018-12-07T11:40:24.362Z,8.20
2018-12-07T11:42:55.397Z,8.80
2018-12-07T11:45:26.302Z,9.00
2018-12-07T11:47:57.735Z,9.00
2018-12-07T11:50:28.694Z,8.90
2018-12-07T11:52:59.630Z,8.90
2018-12-07T11:55:30.542Z,9.00
2018-12-07T11:58:01.474Z,9.10
2018-12-07T12:00:32.469Z,9.00
2018-12-07T12:03:03.374Z,8.80
2018-12-07T12:05:34.302Z,8.70
2018-12-07T12:08:05.258Z,8.70
2018-12-07T12:10:36.098Z,8.60
2018-12-07T12:13:06.973Z,8.60
2018-12-07T12:15:37.958Z,8.60
2018-12-07T12:18:08.844Z,8.60
2018-12-07T12:20:40.166Z,8.60
2018-12-07T12:23:11.068Z,8.50
2018-12-07T12:25:42.016Z,8.60
2018-12-07T12:28:12.901Z,8.60
2018-12-07T12:30:43.962Z,8.70
2018-12-07T12:33:14.930Z,8.70
2018-12-07T12:35:45.945Z,8.80
2018-12-07T12:38:16.993Z,8.90
2018-12-07T12:40:48.141Z,9.00
2018-12-07T12:43:19.343Z,9.00
2018-12-07T12:45:50.582Z,9.10
2018-12-07T12:48:21.717Z,9.10
2018-12-07T12:50:54.938Z,9.10
2018-12-07T12:53:26.109Z,9.20
2018-12-07T12:55:58.356Z,9.20
2018-12-07T12:58:29.337Z,9.20
2018-12-07T13:01:00.624Z,9.20
2018-12-07T13:03:31.825Z,9.20
2018-12-07T13:06:02.916Z,9.20
2018-12-07T13:08:34.007Z,9.10
2018-12-07T13:11:05.312Z,9.20
2018-12-07T13:13:36.363Z,9.10
2018-12-07T13:16:07.510Z,9.20
2018-12-07T13:18:38.592Z,9.10
2018-12-07T13:21:10.200Z,9.20
2018-12-07T13:23:41.310Z,9.30
2018-12-07T13:26:12.425Z,9.30
2018-12-07T13:28:43.485Z,9.30
2018-12-07T13:31:14.547Z,9.30
2018-12-07T13:33:45.400Z,9.30
2018-12-07T13:36:16.408Z,9.30
2018-12-07T13:38:47.373Z,9.20
2018-12-07T13:41:18.332Z,9.10
2018-12-07T13:43:49.368Z,9.10
2018-12-07T13:46:20.783Z,9.10
2018-12-07T13:48:51.775Z,9.10
2018-12-07T13:51:22.969Z,9.10
2018-12-07T13:53:54.151Z,9.10
2018-12-07T13:56:25.464Z,9.10
2018-12-07T13:58:56.708Z,9.20
2018-12-07T14:01:29.043Z,9.10
2018-12-07T14:04:00.096Z,9.10
2018-12-07T14:06:31.110Z,9.10
2018-12-07T14:09:02.228Z,9.10
2018-12-07T14:11:33.398Z,9.00
2018-12-07T14:14:04.768Z,9.00
2018-12-07T14:16:36.817Z,9.10
2018-12-07T14:19:08.022Z,9.10
2018-12-07T14:21:39.069Z,9.00
2018-12-07T14:24:09.976Z,8.90
2018-12-07T14:26:40.957Z,8.70
2018-12-07T14:29:11.871Z,8.70
2018-12-07T14:31:43.102Z,8.70
2018-12-07T14:34:14.220Z,8.60
2018-12-07T14:36:46.171Z,8.50
2018-12-07T14:39:17.346Z,8.40
2018-12-07T14:41:48.705Z,8.40
2018-12-07T14:44:19.799Z,8.30
2018-12-07T14:46:52.729Z,8.20
2018-12-07T14:49:23.900Z,8.10
2018-12-07T14:51:55.213Z,8.00
2018-12-07T14:54:26.287Z,7.90
2018-12-07T14:57:09.221Z,7.90
2018-12-07T14:59:40.508Z,7.90
2018-12-07T15:02:11.794Z,7.90
2018-12-07T15:04:42.852Z,8.00
2018-12-07T15:07:14.729Z,8.00
2018-12-07T15:09:49.169Z,7.90
2018-12-07T15:12:20.521Z,7.90
2018-12-07T15:14:51.870Z,7.90
2018-12-07T15:17:23.069Z,7.80
2018-12-07T15:19:54.328Z,7.80
2018-12-07T15:22:25.524Z,7.70
2018-12-07T15:24:57.074Z,7.90
2018-12-07T15:27:28.514Z,7.90
2018-12-07T15:30:00.036Z,7.80
2018-12-07T15:32:31.352Z,7.70
2018-12-07T15:35:02.474Z,7.70
2018-12-07T15:37:33.902Z,7.70
2018-12-07T15:40:06.544Z,7.70
2018-12-07T15:42:37.915Z,7.70
2018-12-07T15:45:12.466Z,7.70
2018-12-07T15:47:44.876Z,7.60
2018-12-07T15:50:16.044Z,7.60
2018-12-07T15:52:47.457Z,7.50
2018-12-07T15:55:18.817Z,7.60
2018-12-07T15:57:50.134Z,7.50
2018-12-07T16:00:21.628Z,7.60
2018-12-07T16:02:53.371Z,7.50
2018-12-07T16:05:25.542Z,7.50
2018-12-07T16:07:57.028Z,7.40
2018-12-07T16:10:28.536Z,7.40
2018-12-07T16:13:00.026Z,7.40
2018-12-07T16:15:31.738Z,7.40
2018-12-07T16:18:03.317Z,7.40
2018-12-07T16:20:36.815Z,7.40
2018-12-07T16:23:09.227Z,7.50
2018-12-07T16:25:41.012Z,7.40
2018-12-07T16:28:13.648Z,7.40
2018-12-07T16:30:45.466Z,7.30
2018-12-07T16:33:17.081Z,7.40
2018-12-07T16:35:49.218Z,7.40
2018-12-07T16:38:20.884Z,7.40
2018-12-07T16:40:52.504Z,7.40
2018-12-07T16:43:24.248Z,7.30
2018-12-07T16:45:56.679Z,7.20
2018-12-07T16:48:28.745Z,7.20
2018-12-07T16:51:01.405Z,7.10
2018-12-07T16:53:34.086Z,7.10
2018-12-07T16:56:05.649Z,7.10
2018-12-07T16:58:37.264Z,7.10
2018-12-07T17:03:45.636Z,7.20
2018-12-07T17:06:18.544Z,7.20
2018-12-07T17:08:52.333Z,7.10
2018-12-07T17:11:24.579Z,7.00
2018-12-07T17:13:57.421Z,7.00
2018-12-07T17:16:29.725Z,7.10
2018-12-07T17:19:04.526Z,7.00
2018-12-07T17:21:36.326Z,6.80
2018-12-07T17:24:11.331Z,6.70
2018-12-07T17:26:42.884Z,6.70
2018-12-07T17:29:14.900Z,6.70
2018-12-07T17:31:46.797Z,6.80
2018-12-07T17:34:19.119Z,6.80
2018-12-07T17:36:50.862Z,6.60
2018-12-07T17:39:22.772Z,6.60
2018-12-07T17:41:54.444Z,6.70
2018-12-07T17:44:26.918Z,6.60
2018-12-07T17:46:59.478Z,6.50
2018-12-07T17:49:31.142Z,6.40
2018-12-07T17:52:02.945Z,6.40
2018-12-07T17:54:34.954Z,6.30
2018-12-07T17:57:06.886Z,6.20
2018-12-07T17:59:38.639Z,6.20
2018-12-07T18:02:10.209Z,6.20
2018-12-07T18:04:42.801Z,6.10
2018-12-07T18:07:17.504Z,6.10
2018-12-07T18:09:49.225Z,6.00
2018-12-07T18:12:22.120Z,5.90
2018-12-07T18:14:54.975Z,5.90
2018-12-07T18:17:30.652Z,5.90
2018-12-07T18:20:04.351Z,5.90
2018-12-07T18:22:35.853Z,5.80
2018-12-07T18:25:08.784Z,5.70
2018-12-07T18:27:46.180Z,5.80
2018-12-07T18:30:18.306Z,5.90
2018-12-07T18:32:51.175Z,5.90
2018-12-07T18:35:23.437Z,5.90
2018-12-07T18:37:55.132Z,5.90
2018-12-07T18:40:27.494Z,5.90
2018-12-07T18:43:01.830Z,6.10
2018-12-07T18:45:33.736Z,6.10
2018-12-07T18:48:06.894Z,6.10
2018-12-07T18:50:53.638Z,5.90
2018-12-07T18:53:26.702Z,5.90
2018-12-07T18:55:59.139Z,5.90
2018-12-07T18:58:32.112Z,5.80
2018-12-07T19:01:04.690Z,5.80
2018-12-07T19:03:37.019Z,5.90
2018-12-07T19:06:08.803Z,5.90
2018-12-07T19:08:40.693Z,5.90
2018-12-07T19:11:13.827Z,5.90
2018-12-07T19:13:49.045Z,5.80
2018-12-07T19:16:22.504Z,5.80
2018-12-07T19:18:54.303Z,5.90
2018-12-07T19:21:27.251Z,5.80
2018-12-07T19:24:01.010Z,5.80
2018-12-07T19:26:35.031Z,5.80
2018-12-07T19:29:06.746Z,5.90
2018-12-07T19:31:39.638Z,5.90
2018-12-07T19:34:11.369Z,5.90
2018-12-07T19:36:43.440Z,6.00
2018-12-07T19:39:18.312Z,6.10
2018-12-07T19:41:50.113Z,6.00
2018-12-07T19:44:23.557Z,6.10
2018-12-07T19:46:56.669Z,6.10
2018-12-07T19:49:29.971Z,6.10
2018-12-07T19:52:02.530Z,6.00
2018-12-07T19:54:34.715Z,5.90
2018-12-07T19:57:08.602Z,6.00
2018-12-07T19:59:43.202Z,6.00
2018-12-07T20:02:15.654Z,5.90
2018-12-07T20:04:47.149Z,5.90
2018-12-07T20:07:19.079Z,6.10
2018-12-07T20:09:51.157Z,6.10
2018-12-07T20:12:23.984Z,6.10
2018-12-07T20:14:55.848Z,6.10
2018-12-07T20:17:28.908Z,6.20
2018-12-07T20:20:01.207Z,6.30
2018-12-07T20:22:33.798Z,6.60
2018-12-07T20:25:07.061Z,6.80
2018-12-07T20:27:39.009Z,6.70
2018-12-07T20:30:11.247Z,6.80
2018-12-07T20:32:43.620Z,7.00
2018-12-07T20:35:16.232Z,7.00
2018-12-07T20:37:48.181Z,7.10
2018-12-07T20:40:25.251Z,7.10
2018-12-07T20:42:58.444Z,7.30
2018-12-07T20:45:30.207Z,7.50
2018-12-07T20:48:02.638Z,7.60
2018-12-07T20:50:34.589Z,7.40
2018-12-07T20:53:06.761Z,7.40
2018-12-07T20:55:39.050Z,7.20
2018-12-07T20:58:10.899Z,7.10
2018-12-07T21:00:42.715Z,7.00
2018-12-07T21:03:15.323Z,7.20
2018-12-07T21:06:58.310Z,7.10
2018-12-07T21:09:37.183Z,7.20
2018-12-07T21:12:33.212Z,7.40
2018-12-07T21:15:05.412Z,7.70
2018-12-07T21:17:39.567Z,8.00
2018-12-07T21:20:20.166Z,8.50
2018-12-07T21:22:52.929Z,8.40
2018-12-07T21:25:28.395Z,7.50
2018-12-07T21:28:00.682Z,7.10
2018-12-07T21:31:02.012Z,7.20
2018-12-07T21:33:57.290Z,7.40
2018-12-07T21:36:41.909Z,7.40
2018-12-07T21:39:25.079Z,7.20
2018-12-07T21:41:56.717Z,7.20
2018-12-07T21:44:29.949Z,7.30
2018-12-07T21:47:01.879Z,7.00
2018-12-07T21:49:52.715Z,6.80
2018-12-07T21:52:27.498Z,6.80
2018-12-07T21:54:59.153Z,6.70
2018-12-07T21:57:31.426Z,6.70
2018-12-07T22:00:03.574Z,6.70
2018-12-07T22:02:36.381Z,6.80
2018-12-07T22:05:12.699Z,6.70
2018-12-07T22:07:44.353Z,6.70
2018-12-07T22:12:52.411Z,6.70
2018-12-07T22:15:23.768Z,6.70
2018-12-07T22:17:55.254Z,6.70
2018-12-07T22:20:26.811Z,6.70
2018-12-07T22:22:59.043Z,6.70
2018-12-07T22:25:31.045Z,6.70
2018-12-07T22:28:02.562Z,6.60
2018-12-07T22:30:34.728Z,6.60
2018-12-07T22:33:06.795Z,6.70
2018-12-07T22:35:38.125Z,6.70
2018-12-07T22:38:09.452Z,6.70
2018-12-07T22:40:40.640Z,6.70
2018-12-07T22:43:11.754Z,6.70
2018-12-07T22:45:42.709Z,6.70
2018-12-07T22:48:13.914Z,6.60
2018-12-07T22:50:44.899Z,6.60
2018-12-07T22:53:16.028Z,6.50
2018-12-07T22:55:46.827Z,6.50
2018-12-07T22:58:17.748Z,6.50
2018-12-07T23:00:50.026Z,6.40
2018-12-07T23:03:21.417Z,6.40
2018-12-07T23:05:52.241Z,6.40
2018-12-07T23:08:23.489Z,6.40
2018-12-07T23:10:54.407Z,6.40
2018-12-07T23:13:25.816Z,6.40
2018-12-07T23:15:57.000Z,6.40
2018-12-07T23:18:27.903Z,6.40
2018-12-07T23:20:59.103Z,6.30
2018-12-07T23:23:30.077Z,6.30
2018-12-07T23:26:01.239Z,6.30
2018-12-07T23:28:32.127Z,6.30
2018-12-07T23:31:02.909Z,6.30
2018-12-07T23:33:33.990Z,6.30
2018-12-07T23:36:04.858Z,6.30
2018-12-07T23:38:35.779Z,6.30
2018-12-07T23:41:06.619Z,6.30
2018-12-07T23:43:37.547Z,6.30
2018-12-07T23:46:08.307Z,6.30
2018-12-07T23:48:39.167Z,6.30
2018-12-07T23:51:10.007Z,6.30
2018-12-07T23:53:40.906Z,6.20
2018-12-07T23:56:11.795Z,6.30
2018-12-07T23:58:42.682Z,6.20
